sensor_id;sensor_type;location;lat;lon;timestamp;P1;durP1;ratioP1;P2;durP2;ratioP2
23101;SDS011;11720;51.214;22.574;2023-07-13T00:02:14;4.15;;;3.30;;
23101;SDS011;11720;51.214;22.574;2023-07-13T00:04:40;7.85;;;5.05;;
23101;SDS011;11720;51.214;22.574;2023-07-13T00:07:07;5.50;;;4.13;;
23101;SDS011;11720;51.214;22.574;2023-07-13T00:09:33;4.03;;;3.55;;
23101;SDS011;11720;51.214;22.574;2023-07-13T00:12:00;7.10;;;4.20;;
23101;SDS011;11720;51.214;22.574;2023-07-13T00:14:27;6.07;;;4.40;;
23101;SDS011;11720;51.214;22.574;2023-07-13T00:16:54;4.50;;;3.33;;
23101;SDS011;11720;51.214;22.574;2023-07-13T00:19:20;5.53;;;4.45;;
23101;SDS011;11720;51.214;22.574;2023-07-13T00:21:46;4.35;;;3.60;;
23101;SDS011;11720;51.214;22.574;2023-07-13T00:24:12;5.05;;;3.90;;
23101;SDS011;11720;51.214;22.574;2023-07-13T00:26:41;7.47;;;3.80;;
23101;SDS011;11720;51.214;22.574;2023-07-13T00:29:10;4.63;;;3.80;;
23101;SDS011;11720;51.214;22.574;2023-07-13T00:31:37;4.82;;;3.35;;
23101;SDS011;11720;51.214;22.574;2023-07-13T00:34:03;5.35;;;3.80;;
23101;SDS011;11720;51.214;22.574;2023-07-13T00:36:29;5.40;;;3.45;;
23101;SDS011;11720;51.214;22.574;2023-07-13T00:38:56;9.80;;;4.07;;
23101;SDS011;11720;51.214;22.574;2023-07-13T00:41:21;4.93;;;3.67;;
23101;SDS011;11720;51.214;22.574;2023-07-13T00:43:47;4.35;;;3.78;;
23101;SDS011;11720;51.214;22.574;2023-07-13T00:46:15;14.65;;;3.70;;
23101;SDS011;11720;51.214;22.574;2023-07-13T00:48:44;4.70;;;3.70;;
23101;SDS011;11720;51.214;22.574;2023-07-13T00:51:12;5.25;;;3.90;;
23101;SDS011;11720;51.214;22.574;2023-07-13T00:53:40;4.82;;;3.78;;
23101;SDS011;11720;51.214;22.574;2023-07-13T00:56:06;4.30;;;3.80;;
23101;SDS011;11720;51.214;22.574;2023-07-13T00:58:32;11.80;;;4.20;;
23101;SDS011;11720;51.214;22.574;2023-07-13T01:00:58;10.10;;;3.95;;
23101;SDS011;11720;51.214;22.574;2023-07-13T01:03:24;8.20;;;3.90;;
23101;SDS011;11720;51.214;22.574;2023-07-13T01:05:50;6.78;;;4.47;;
23101;SDS011;11720;51.214;22.574;2023-07-13T01:08:16;5.53;;;3.70;;
23101;SDS011;11720;51.214;22.574;2023-07-13T01:10:52;6.03;;;4.20;;
23101;SDS011;11720;51.214;22.574;2023-07-13T01:13:23;6.97;;;4.57;;
23101;SDS011;11720;51.214;22.574;2023-07-13T01:15:50;4.05;;;3.35;;
23101;SDS011;11720;51.214;22.574;2023-07-13T01:20:51;5.47;;;4.05;;
23101;SDS011;11720;51.214;22.574;2023-07-13T01:23:24;7.88;;;4.22;;
23101;SDS011;11720;51.214;22.574;2023-07-13T01:25:51;12.63;;;4.03;;
23101;SDS011;11720;51.214;22.574;2023-07-13T01:28:18;5.13;;;4.05;;
23101;SDS011;11720;51.214;22.574;2023-07-13T01:30:44;6.35;;;4.22;;
23101;SDS011;11720;51.214;22.574;2023-07-13T01:33:12;9.43;;;4.90;;
23101;SDS011;11720;51.214;22.574;2023-07-13T01:35:39;6.38;;;3.83;;
23101;SDS011;11720;51.214;22.574;2023-07-13T01:38:05;6.35;;;4.72;;
23101;SDS011;11720;51.214;22.574;2023-07-13T01:40:31;6.93;;;4.75;;
23101;SDS011;11720;51.214;22.574;2023-07-13T01:42:57;5.63;;;4.53;;
23101;SDS011;11720;51.214;22.574;2023-07-13T01:45:23;5.50;;;4.53;;
23101;SDS011;11720;51.214;22.574;2023-07-13T01:47:49;6.68;;;4.80;;
23101;SDS011;11720;51.214;22.574;2023-07-13T01:50:15;10.27;;;4.95;;
23101;SDS011;11720;51.214;22.574;2023-07-13T01:52:40;8.95;;;4.45;;
23101;SDS011;11720;51.214;22.574;2023-07-13T01:55:06;6.78;;;4.38;;
23101;SDS011;11720;51.214;22.574;2023-07-13T01:57:33;5.95;;;4.68;;
23101;SDS011;11720;51.214;22.574;2023-07-13T01:59:59;8.98;;;4.53;;
23101;SDS011;11720;51.214;22.574;2023-07-13T02:02:24;8.85;;;4.70;;
23101;SDS011;11720;51.214;22.574;2023-07-13T02:04:50;7.05;;;4.53;;
23101;SDS011;11720;51.214;22.574;2023-07-13T02:07:16;7.38;;;5.05;;
23101;SDS011;11720;51.214;22.574;2023-07-13T02:09:41;6.38;;;4.65;;
23101;SDS011;11720;51.214;22.574;2023-07-13T02:12:07;8.63;;;4.60;;
23101;SDS011;11720;51.214;22.574;2023-07-13T02:14:33;6.68;;;4.75;;
23101;SDS011;11720;51.214;22.574;2023-07-13T02:16:59;7.32;;;4.88;;
23101;SDS011;11720;51.214;22.574;2023-07-13T02:19:24;10.25;;;4.82;;
23101;SDS011;11720;51.214;22.574;2023-07-13T02:21:50;8.95;;;4.97;;
23101;SDS011;11720;51.214;22.574;2023-07-13T02:24:16;8.48;;;5.00;;
23101;SDS011;11720;51.214;22.574;2023-07-13T02:26:42;8.00;;;4.53;;
23101;SDS011;11720;51.214;22.574;2023-07-13T02:29:09;5.53;;;4.35;;
23101;SDS011;11720;51.214;22.574;2023-07-13T02:31:35;7.53;;;4.60;;
23101;SDS011;11720;51.214;22.574;2023-07-13T02:34:01;8.43;;;5.43;;
23101;SDS011;11720;51.214;22.574;2023-07-13T02:36:28;8.82;;;5.63;;
23101;SDS011;11720;51.214;22.574;2023-07-13T02:38:54;10.45;;;4.97;;
23101;SDS011;11720;51.214;22.574;2023-07-13T02:41:19;9.90;;;4.65;;
23101;SDS011;11720;51.214;22.574;2023-07-13T02:43:45;5.20;;;3.90;;
23101;SDS011;11720;51.214;22.574;2023-07-13T02:46:11;7.15;;;4.82;;
23101;SDS011;11720;51.214;22.574;2023-07-13T02:48:37;11.07;;;4.70;;
23101;SDS011;11720;51.214;22.574;2023-07-13T02:51:04;13.35;;;4.65;;
23101;SDS011;11720;51.214;22.574;2023-07-13T02:53:30;6.07;;;4.72;;
23101;SDS011;11720;51.214;22.574;2023-07-13T02:55:56;7.40;;;4.47;;
23101;SDS011;11720;51.214;22.574;2023-07-13T02:58:22;7.13;;;4.90;;
23101;SDS011;11720;51.214;22.574;2023-07-13T03:00:48;7.45;;;5.40;;
23101;SDS011;11720;51.214;22.574;2023-07-13T03:03:15;12.55;;;4.95;;
23101;SDS011;11720;51.214;22.574;2023-07-13T03:05:42;5.72;;;4.43;;
23101;SDS011;11720;51.214;22.574;2023-07-13T03:08:09;6.55;;;4.82;;
23101;SDS011;11720;51.214;22.574;2023-07-13T03:10:36;9.65;;;4.70;;
23101;SDS011;11720;51.214;22.574;2023-07-13T03:13:04;9.75;;;5.03;;
23101;SDS011;11720;51.214;22.574;2023-07-13T03:15:30;6.93;;;4.78;;
23101;SDS011;11720;51.214;22.574;2023-07-13T03:17:56;8.40;;;4.97;;
23101;SDS011;11720;51.214;22.574;2023-07-13T03:20:22;6.60;;;5.00;;
23101;SDS011;11720;51.214;22.574;2023-07-13T03:22:48;7.13;;;5.13;;
23101;SDS011;11720;51.214;22.574;2023-07-13T03:25:14;10.23;;;5.15;;
23101;SDS011;11720;51.214;22.574;2023-07-13T03:27:39;10.43;;;4.97;;
23101;SDS011;11720;51.214;22.574;2023-07-13T03:30:05;6.50;;;4.85;;
23101;SDS011;11720;51.214;22.574;2023-07-13T03:32:32;11.93;;;5.95;;
23101;SDS011;11720;51.214;22.574;2023-07-13T03:34:57;7.25;;;5.38;;
23101;SDS011;11720;51.214;22.574;2023-07-13T03:37:23;7.00;;;5.03;;
23101;SDS011;11720;51.214;22.574;2023-07-13T03:39:49;7.97;;;5.80;;
23101;SDS011;11720;51.214;22.574;2023-07-13T03:42:15;8.68;;;6.13;;
23101;SDS011;11720;51.214;22.574;2023-07-13T03:44:41;7.82;;;5.72;;
23101;SDS011;11720;51.214;22.574;2023-07-13T03:47:10;10.07;;;5.88;;
23101;SDS011;11720;51.214;22.574;2023-07-13T03:49:36;8.38;;;5.30;;
23101;SDS011;11720;51.214;22.574;2023-07-13T03:52:02;16.45;;;6.03;;
23101;SDS011;11720;51.214;22.574;2023-07-13T03:54:28;9.68;;;5.47;;
23101;SDS011;11720;51.214;22.574;2023-07-13T03:56:54;9.27;;;5.88;;
23101;SDS011;11720;51.214;22.574;2023-07-13T03:59:20;11.38;;;6.05;;
23101;SDS011;11720;51.214;22.574;2023-07-13T04:01:46;11.98;;;7.22;;
23101;SDS011;11720;51.214;22.574;2023-07-13T04:04:11;10.05;;;6.20;;
23101;SDS011;11720;51.214;22.574;2023-07-13T04:06:37;13.82;;;7.65;;
23101;SDS011;11720;51.214;22.574;2023-07-13T04:09:03;12.98;;;7.45;;
23101;SDS011;11720;51.214;22.574;2023-07-13T04:11:30;18.98;;;7.53;;
23101;SDS011;11720;51.214;22.574;2023-07-13T04:13:57;10.75;;;6.80;;
23101;SDS011;11720;51.214;22.574;2023-07-13T04:16:24;11.75;;;6.85;;
23101;SDS011;11720;51.214;22.574;2023-07-13T04:18:50;11.63;;;6.78;;
23101;SDS011;11720;51.214;22.574;2023-07-13T04:21:20;12.68;;;7.28;;
23101;SDS011;11720;51.214;22.574;2023-07-13T04:23:46;11.30;;;7.20;;
23101;SDS011;11720;51.214;22.574;2023-07-13T04:26:11;12.30;;;7.43;;
23101;SDS011;11720;51.214;22.574;2023-07-13T04:28:37;11.95;;;7.32;;
23101;SDS011;11720;51.214;22.574;2023-07-13T04:31:03;9.73;;;7.65;;
23101;SDS011;11720;51.214;22.574;2023-07-13T04:33:29;12.90;;;6.72;;
23101;SDS011;11720;51.214;22.574;2023-07-13T04:35:55;11.52;;;7.75;;
23101;SDS011;11720;51.214;22.574;2023-07-13T04:38:27;10.77;;;7.65;;
23101;SDS011;11720;51.214;22.574;2023-07-13T04:40:58;11.73;;;7.65;;
23101;SDS011;11720;51.214;22.574;2023-07-13T04:43:26;12.10;;;7.63;;
23101;SDS011;11720;51.214;22.574;2023-07-13T04:45:52;10.85;;;7.90;;
23101;SDS011;11720;51.214;22.574;2023-07-13T04:48:19;11.40;;;8.13;;
23101;SDS011;11720;51.214;22.574;2023-07-13T04:50:45;15.85;;;9.70;;
23101;SDS011;11720;51.214;22.574;2023-07-13T04:53:11;15.75;;;9.02;;
23101;SDS011;11720;51.214;22.574;2023-07-13T04:55:37;18.50;;;8.15;;
23101;SDS011;11720;51.214;22.574;2023-07-13T04:58:04;12.13;;;8.57;;
23101;SDS011;11720;51.214;22.574;2023-07-13T05:00:30;11.32;;;7.68;;
23101;SDS011;11720;51.214;22.574;2023-07-13T05:02:56;12.68;;;8.60;;
23101;SDS011;11720;51.214;22.574;2023-07-13T05:05:25;15.63;;;9.52;;
23101;SDS011;11720;51.214;22.574;2023-07-13T05:07:52;13.90;;;8.80;;
23101;SDS011;11720;51.214;22.574;2023-07-13T05:10:18;13.07;;;8.82;;
23101;SDS011;11720;51.214;22.574;2023-07-13T05:12:44;14.18;;;8.77;;
23101;SDS011;11720;51.214;22.574;2023-07-13T05:15:10;12.40;;;8.95;;
23101;SDS011;11720;51.214;22.574;2023-07-13T05:17:36;13.27;;;10.45;;
23101;SDS011;11720;51.214;22.574;2023-07-13T05:20:04;9.50;;;6.93;;
23101;SDS011;11720;51.214;22.574;2023-07-13T05:22:30;10.73;;;7.78;;
23101;SDS011;11720;51.214;22.574;2023-07-13T05:24:56;12.13;;;8.00;;
23101;SDS011;11720;51.214;22.574;2023-07-13T05:27:22;12.52;;;8.88;;
23101;SDS011;11720;51.214;22.574;2023-07-13T05:29:48;12.48;;;9.45;;
23101;SDS011;11720;51.214;22.574;2023-07-13T05:32:14;14.38;;;8.80;;
23101;SDS011;11720;51.214;22.574;2023-07-13T05:34:40;16.55;;;9.75;;
23101;SDS011;11720;51.214;22.574;2023-07-13T05:37:07;14.23;;;8.88;;
23101;SDS011;11720;51.214;22.574;2023-07-13T05:39:33;13.80;;;9.43;;
23101;SDS011;11720;51.214;22.574;2023-07-13T05:41:59;12.68;;;8.85;;
23101;SDS011;11720;51.214;22.574;2023-07-13T05:44:24;14.05;;;8.30;;
23101;SDS011;11720;51.214;22.574;2023-07-13T05:46:50;10.38;;;7.50;;
23101;SDS011;11720;51.214;22.574;2023-07-13T05:49:16;12.77;;;7.47;;
23101;SDS011;11720;51.214;22.574;2023-07-13T05:51:42;14.30;;;7.30;;
23101;SDS011;11720;51.214;22.574;2023-07-13T05:54:07;8.65;;;6.85;;
23101;SDS011;11720;51.214;22.574;2023-07-13T05:56:33;10.27;;;7.20;;
23101;SDS011;11720;51.214;22.574;2023-07-13T05:58:58;12.38;;;7.55;;
23101;SDS011;11720;51.214;22.574;2023-07-13T06:01:24;16.90;;;8.52;;
23101;SDS011;11720;51.214;22.574;2023-07-13T06:03:50;12.20;;;8.27;;
23101;SDS011;11720;51.214;22.574;2023-07-13T06:06:17;15.35;;;10.00;;
23101;SDS011;11720;51.214;22.574;2023-07-13T06:08:42;17.13;;;11.10;;
23101;SDS011;11720;51.214;22.574;2023-07-13T06:11:19;13.30;;;8.77;;
23101;SDS011;11720;51.214;22.574;2023-07-13T06:13:49;12.35;;;8.60;;
23101;SDS011;11720;51.214;22.574;2023-07-13T06:16:15;13.00;;;9.48;;
23101;SDS011;11720;51.214;22.574;2023-07-13T06:18:41;11.95;;;9.13;;
23101;SDS011;11720;51.214;22.574;2023-07-13T06:21:08;13.32;;;10.50;;
23101;SDS011;11720;51.214;22.574;2023-07-13T06:23:38;12.95;;;8.30;;
23101;SDS011;11720;51.214;22.574;2023-07-13T06:26:05;17.30;;;8.90;;
23101;SDS011;11720;51.214;22.574;2023-07-13T06:28:32;11.95;;;9.25;;
23101;SDS011;11720;51.214;22.574;2023-07-13T06:30:59;17.75;;;9.65;;
23101;SDS011;11720;51.214;22.574;2023-07-13T06:33:29;14.27;;;8.77;;
23101;SDS011;11720;51.214;22.574;2023-07-13T06:35:55;13.48;;;8.68;;
23101;SDS011;11720;51.214;22.574;2023-07-13T06:38:21;18.83;;;8.75;;
23101;SDS011;11720;51.214;22.574;2023-07-13T06:40:47;14.82;;;9.80;;
23101;SDS011;11720;51.214;22.574;2023-07-13T06:43:13;15.48;;;9.45;;
23101;SDS011;11720;51.214;22.574;2023-07-13T06:45:43;11.55;;;8.90;;
23101;SDS011;11720;51.214;22.574;2023-07-13T06:48:12;15.40;;;9.07;;
23101;SDS011;11720;51.214;22.574;2023-07-13T06:50:38;14.10;;;9.95;;
23101;SDS011;11720;51.214;22.574;2023-07-13T06:53:04;15.38;;;9.85;;
23101;SDS011;11720;51.214;22.574;2023-07-13T06:55:29;14.48;;;10.02;;
23101;SDS011;11720;51.214;22.574;2023-07-13T06:57:55;12.25;;;9.23;;
23101;SDS011;11720;51.214;22.574;2023-07-13T07:00:22;13.48;;;9.30;;
23101;SDS011;11720;51.214;22.574;2023-07-13T07:02:48;15.40;;;9.45;;
23101;SDS011;11720;51.214;22.574;2023-07-13T07:05:14;14.57;;;9.35;;
23101;SDS011;11720;51.214;22.574;2023-07-13T07:07:40;10.57;;;8.18;;
23101;SDS011;11720;51.214;22.574;2023-07-13T07:10:06;14.27;;;8.77;;
23101;SDS011;11720;51.214;22.574;2023-07-13T07:12:32;11.77;;;8.27;;
23101;SDS011;11720;51.214;22.574;2023-07-13T07:14:58;12.48;;;8.02;;
23101;SDS011;11720;51.214;22.574;2023-07-13T07:17:24;11.15;;;7.50;;
23101;SDS011;11720;51.214;22.574;2023-07-13T07:19:51;14.63;;;8.15;;
23101;SDS011;11720;51.214;22.574;2023-07-13T07:22:18;16.75;;;8.77;;
23101;SDS011;11720;51.214;22.574;2023-07-13T07:24:45;11.13;;;7.97;;
23101;SDS011;11720;51.214;22.574;2023-07-13T07:27:10;9.93;;;8.15;;
23101;SDS011;11720;51.214;22.574;2023-07-13T07:29:36;12.05;;;7.97;;
23101;SDS011;11720;51.214;22.574;2023-07-13T07:32:02;13.68;;;8.07;;
23101;SDS011;11720;51.214;22.574;2023-07-13T07:34:28;15.35;;;7.78;;
23101;SDS011;11720;51.214;22.574;2023-07-13T07:36:54;12.77;;;8.18;;
23101;SDS011;11720;51.214;22.574;2023-07-13T07:39:20;13.18;;;9.30;;
23101;SDS011;11720;51.214;22.574;2023-07-13T07:41:45;17.65;;;9.93;;
23101;SDS011;11720;51.214;22.574;2023-07-13T07:44:11;14.10;;;8.38;;
23101;SDS011;11720;51.214;22.574;2023-07-13T07:46:37;12.77;;;8.88;;
23101;SDS011;11720;51.214;22.574;2023-07-13T07:49:05;15.25;;;8.90;;
23101;SDS011;11720;51.214;22.574;2023-07-13T07:51:31;14.70;;;8.75;;
23101;SDS011;11720;51.214;22.574;2023-07-13T07:53:57;14.88;;;9.27;;
23101;SDS011;11720;51.214;22.574;2023-07-13T07:56:22;16.55;;;9.48;;
23101;SDS011;11720;51.214;22.574;2023-07-13T07:58:48;17.48;;;9.57;;
23101;SDS011;11720;51.214;22.574;2023-07-13T08:01:14;21.33;;;9.77;;
23101;SDS011;11720;51.214;22.574;2023-07-13T08:03:41;15.02;;;9.60;;
23101;SDS011;11720;51.214;22.574;2023-07-13T08:06:06;17.42;;;9.23;;
23101;SDS011;11720;51.214;22.574;2023-07-13T08:08:32;13.82;;;8.48;;
23101;SDS011;11720;51.214;22.574;2023-07-13T08:11:02;14.13;;;9.52;;
23101;SDS011;11720;51.214;22.574;2023-07-13T08:13:28;12.45;;;8.68;;
23101;SDS011;11720;51.214;22.574;2023-07-13T08:15:54;15.35;;;8.98;;
23101;SDS011;11720;51.214;22.574;2023-07-13T08:18:20;12.93;;;9.18;;
23101;SDS011;11720;51.214;22.574;2023-07-13T08:20:46;13.35;;;9.43;;
23101;SDS011;11720;51.214;22.574;2023-07-13T08:23:11;14.77;;;9.50;;
23101;SDS011;11720;51.214;22.574;2023-07-13T08:25:37;11.13;;;8.18;;
23101;SDS011;11720;51.214;22.574;2023-07-13T08:28:03;10.48;;;7.72;;
23101;SDS011;11720;51.214;22.574;2023-07-13T08:30:29;15.73;;;10.00;;
23101;SDS011;11720;51.214;22.574;2023-07-13T08:32:55;13.38;;;9.20;;
23101;SDS011;11720;51.214;22.574;2023-07-13T08:35:21;14.10;;;9.13;;
23101;SDS011;11720;51.214;22.574;2023-07-13T08:37:47;15.13;;;9.05;;
23101;SDS011;11720;51.214;22.574;2023-07-13T08:40:13;13.52;;;9.95;;
23101;SDS011;11720;51.214;22.574;2023-07-13T08:42:39;13.02;;;9.20;;
23101;SDS011;11720;51.214;22.574;2023-07-13T08:47:54;16.05;;;9.05;;
23101;SDS011;11720;51.214;22.574;2023-07-13T08:50:35;12.85;;;9.30;;
23101;SDS011;11720;51.214;22.574;2023-07-13T08:53:14;14.00;;;9.90;;
23101;SDS011;11720;51.214;22.574;2023-07-13T08:55:40;13.35;;;9.77;;
23101;SDS011;11720;51.214;22.574;2023-07-13T08:58:14;14.88;;;9.85;;
23101;SDS011;11720;51.214;22.574;2023-07-13T09:03:12;13.13;;;9.45;;
23101;SDS011;11720;51.214;22.574;2023-07-13T09:05:49;14.32;;;9.30;;
23101;SDS011;11720;51.214;22.574;2023-07-13T09:16:28;14.98;;;9.10;;
23101;SDS011;11720;51.214;22.574;2023-07-13T09:18:54;16.75;;;9.60;;
23101;SDS011;11720;51.214;22.574;2023-07-13T09:21:25;13.93;;;9.25;;
23101;SDS011;11720;51.214;22.574;2023-07-13T09:23:56;12.60;;;9.68;;
23101;SDS011;11720;51.214;22.574;2023-07-13T09:26:26;13.48;;;9.38;;
23101;SDS011;11720;51.214;22.574;2023-07-13T09:28:59;16.45;;;9.15;;
23101;SDS011;11720;51.214;22.574;2023-07-13T09:31:41;12.50;;;9.35;;
23101;SDS011;11720;51.214;22.574;2023-07-13T09:34:11;12.68;;;9.88;;
23101;SDS011;11720;51.214;22.574;2023-07-13T09:36:37;12.55;;;9.52;;
23101;SDS011;11720;51.214;22.574;2023-07-13T09:44:17;11.40;;;8.40;;
23101;SDS011;11720;51.214;22.574;2023-07-13T09:46:53;14.77;;;9.40;;
23101;SDS011;11720;51.214;22.574;2023-07-13T09:49:23;13.23;;;7.80;;
23101;SDS011;11720;51.214;22.574;2023-07-13T09:51:57;9.70;;;5.85;;
23101;SDS011;11720;51.214;22.574;2023-07-13T09:54:32;10.48;;;6.13;;
23101;SDS011;11720;51.214;22.574;2023-07-13T09:57:00;9.85;;;6.90;;
23101;SDS011;11720;51.214;22.574;2023-07-13T09:59:30;11.10;;;6.22;;
23101;SDS011;11720;51.214;22.574;2023-07-13T10:07:26;7.57;;;5.65;;
23101;SDS011;11720;51.214;22.574;2023-07-13T10:09:53;7.43;;;5.30;;
23101;SDS011;11720;51.214;22.574;2023-07-13T10:12:21;6.55;;;5.20;;
23101;SDS011;11720;51.214;22.574;2023-07-13T10:14:52;10.48;;;7.05;;
23101;SDS011;11720;51.214;22.574;2023-07-13T10:17:24;10.75;;;5.93;;
23101;SDS011;11720;51.214;22.574;2023-07-13T10:20:02;6.63;;;5.28;;
23101;SDS011;11720;51.214;22.574;2023-07-13T10:25:14;10.10;;;6.90;;
23101;SDS011;11720;51.214;22.574;2023-07-13T10:27:52;14.50;;;7.05;;
23101;SDS011;11720;51.214;22.574;2023-07-13T10:32:48;7.45;;;5.72;;
23101;SDS011;11720;51.214;22.574;2023-07-13T10:35:16;6.63;;;5.20;;
23101;SDS011;11720;51.214;22.574;2023-07-13T10:40:37;7.00;;;5.82;;
23101;SDS011;11720;51.214;22.574;2023-07-13T10:43:24;7.40;;;5.68;;
23101;SDS011;11720;51.214;22.574;2023-07-13T10:45:57;9.70;;;7.15;;
23101;SDS011;11720;51.214;22.574;2023-07-13T10:48:25;9.30;;;6.60;;
23101;SDS011;11720;51.214;22.574;2023-07-13T10:50:52;7.28;;;5.85;;
23101;SDS011;11720;51.214;22.574;2023-07-13T10:55:58;10.80;;;5.97;;
23101;SDS011;11720;51.214;22.574;2023-07-13T10:58:36;7.80;;;6.00;;
23101;SDS011;11720;51.214;22.574;2023-07-13T11:01:14;9.32;;;5.57;;
23101;SDS011;11720;51.214;22.574;2023-07-13T11:09:39;8.30;;;5.90;;
23101;SDS011;11720;51.214;22.574;2023-07-13T11:12:00;7.00;;;6.07;;
23101;SDS011;11720;51.214;22.574;2023-07-13T11:25:30;6.88;;;5.63;;
23101;SDS011;11720;51.214;22.574;2023-07-13T11:30:37;6.95;;;5.32;;
23101;SDS011;11720;51.214;22.574;2023-07-13T11:41:07;7.13;;;5.35;;
23101;SDS011;11720;51.214;22.574;2023-07-13T11:43:40;7.30;;;5.65;;
23101;SDS011;11720;51.214;22.574;2023-07-13T11:46:17;7.45;;;5.50;;
23101;SDS011;11720;51.214;22.574;2023-07-13T11:48:47;8.63;;;5.30;;
23101;SDS011;11720;51.214;22.574;2023-07-13T11:51:18;9.75;;;5.72;;
23101;SDS011;11720;51.214;22.574;2023-07-13T11:53:45;6.57;;;5.07;;
23101;SDS011;11720;51.214;22.574;2023-07-13T11:56:13;8.43;;;6.13;;
23101;SDS011;11720;51.214;22.574;2023-07-13T11:58:39;10.35;;;7.10;;
23101;SDS011;11720;51.214;22.574;2023-07-13T12:01:06;9.55;;;5.38;;
23101;SDS011;11720;51.214;22.574;2023-07-13T12:03:42;5.43;;;4.60;;
23101;SDS011;11720;51.214;22.574;2023-07-13T12:06:19;6.47;;;4.90;;
23101;SDS011;11720;51.214;22.574;2023-07-13T12:08:49;6.43;;;5.05;;
23101;SDS011;11720;51.214;22.574;2023-07-13T12:11:16;7.53;;;4.95;;
23101;SDS011;11720;51.214;22.574;2023-07-13T12:13:43;7.90;;;4.90;;
23101;SDS011;11720;51.214;22.574;2023-07-13T12:16:11;5.68;;;4.47;;
23101;SDS011;11720;51.214;22.574;2023-07-13T12:18:45;7.97;;;5.15;;
23101;SDS011;11720;51.214;22.574;2023-07-13T12:21:12;10.52;;;5.97;;
23101;SDS011;11720;51.214;22.574;2023-07-13T12:23:43;8.88;;;5.75;;
23101;SDS011;11720;51.214;22.574;2023-07-13T12:26:09;7.80;;;5.07;;
23101;SDS011;11720;51.214;22.574;2023-07-13T12:28:45;8.15;;;4.47;;
23101;SDS011;11720;51.214;22.574;2023-07-13T12:36:40;6.45;;;4.75;;
23101;SDS011;11720;51.214;22.574;2023-07-13T12:39:20;7.15;;;5.47;;
23101;SDS011;11720;51.214;22.574;2023-07-13T12:41:47;8.75;;;5.50;;
23101;SDS011;11720;51.214;22.574;2023-07-13T12:44:21;6.22;;;5.10;;
23101;SDS011;11720;51.214;22.574;2023-07-13T12:46:52;8.15;;;5.30;;
23101;SDS011;11720;51.214;22.574;2023-07-13T12:49:29;9.20;;;5.22;;
23101;SDS011;11720;51.214;22.574;2023-07-13T12:52:00;7.32;;;4.90;;
23101;SDS011;11720;51.214;22.574;2023-07-13T12:54:28;8.73;;;5.63;;
23101;SDS011;11720;51.214;22.574;2023-07-13T12:56:55;5.70;;;4.75;;
23101;SDS011;11720;51.214;22.574;2023-07-13T12:59:24;6.75;;;5.43;;
23101;SDS011;11720;51.214;22.574;2023-07-13T13:01:54;9.23;;;6.18;;
23101;SDS011;11720;51.214;22.574;2023-07-13T13:04:20;7.45;;;6.22;;
23101;SDS011;11720;51.214;22.574;2023-07-13T13:06:47;7.55;;;5.95;;
23101;SDS011;11720;51.214;22.574;2023-07-13T13:09:14;7.97;;;5.93;;
23101;SDS011;11720;51.214;22.574;2023-07-13T13:11:41;9.85;;;5.75;;
23101;SDS011;11720;51.214;22.574;2023-07-13T13:14:08;7.50;;;5.75;;
23101;SDS011;11720;51.214;22.574;2023-07-13T13:16:47;8.32;;;5.78;;
23101;SDS011;11720;51.214;22.574;2023-07-13T13:19:25;10.60;;;6.05;;
23101;SDS011;11720;51.214;22.574;2023-07-13T13:21:53;10.98;;;5.35;;
23101;SDS011;11720;51.214;22.574;2023-07-13T13:24:23;10.18;;;6.75;;
23101;SDS011;11720;51.214;22.574;2023-07-13T13:26:51;6.20;;;4.93;;
23101;SDS011;11720;51.214;22.574;2023-07-13T13:29:19;6.68;;;5.38;;
23101;SDS011;11720;51.214;22.574;2023-07-13T13:31:49;9.50;;;6.53;;
23101;SDS011;11720;51.214;22.574;2023-07-13T13:34:16;9.00;;;5.93;;
23101;SDS011;11720;51.214;22.574;2023-07-13T13:36:43;7.75;;;6.13;;
23101;SDS011;11720;51.214;22.574;2023-07-13T13:39:23;6.45;;;4.90;;
23101;SDS011;11720;51.214;22.574;2023-07-13T13:41:51;5.97;;;4.70;;
23101;SDS011;11720;51.214;22.574;2023-07-13T13:44:18;8.00;;;5.25;;
23101;SDS011;11720;51.214;22.574;2023-07-13T13:46:45;7.38;;;5.80;;
23101;SDS011;11720;51.214;22.574;2023-07-13T13:49:14;7.00;;;5.50;;
23101;SDS011;11720;51.214;22.574;2023-07-13T13:51:42;7.13;;;6.00;;
23101;SDS011;11720;51.214;22.574;2023-07-13T13:54:12;9.27;;;5.30;;
23101;SDS011;11720;51.214;22.574;2023-07-13T13:56:40;8.77;;;6.18;;
23101;SDS011;11720;51.214;22.574;2023-07-13T13:59:10;8.85;;;6.78;;
23101;SDS011;11720;51.214;22.574;2023-07-13T14:01:36;8.65;;;6.50;;
23101;SDS011;11720;51.214;22.574;2023-07-13T14:04:03;10.32;;;6.80;;
23101;SDS011;11720;51.214;22.574;2023-07-13T14:06:30;10.95;;;6.68;;
23101;SDS011;11720;51.214;22.574;2023-07-13T14:08:56;8.52;;;6.10;;
23101;SDS011;11720;51.214;22.574;2023-07-13T14:11:22;9.07;;;6.30;;
23101;SDS011;11720;51.214;22.574;2023-07-13T14:13:52;7.55;;;5.93;;
23101;SDS011;11720;51.214;22.574;2023-07-13T14:16:32;7.07;;;5.80;;
23101;SDS011;11720;51.214;22.574;2023-07-13T14:18:58;9.25;;;5.78;;
23101;SDS011;11720;51.214;22.574;2023-07-13T14:21:26;9.10;;;6.20;;
23101;SDS011;11720;51.214;22.574;2023-07-13T14:23:53;7.22;;;5.80;;
23101;SDS011;11720;51.214;22.574;2023-07-13T14:26:20;7.60;;;5.55;;
23101;SDS011;11720;51.214;22.574;2023-07-13T14:28:50;9.63;;;6.82;;
23101;SDS011;11720;51.214;22.574;2023-07-13T14:31:18;8.55;;;6.45;;
23101;SDS011;11720;51.214;22.574;2023-07-13T14:33:44;9.68;;;6.00;;
23101;SDS011;11720;51.214;22.574;2023-07-13T14:38:51;9.00;;;6.53;;
23101;SDS011;11720;51.214;22.574;2023-07-13T14:41:18;9.18;;;7.07;;
23101;SDS011;11720;51.214;22.574;2023-07-13T14:43:45;12.18;;;6.68;;
23101;SDS011;11720;51.214;22.574;2023-07-13T14:46:32;9.45;;;6.88;;
23101;SDS011;11720;51.214;22.574;2023-07-13T14:49:00;9.32;;;7.53;;
23101;SDS011;11720;51.214;22.574;2023-07-13T14:51:30;12.10;;;8.30;;
23101;SDS011;11720;51.214;22.574;2023-07-13T14:53:56;12.55;;;7.97;;
23101;SDS011;11720;51.214;22.574;2023-07-13T14:56:22;15.07;;;9.38;;
23101;SDS011;11720;51.214;22.574;2023-07-13T14:58:48;13.88;;;9.93;;
23101;SDS011;11720;51.214;22.574;2023-07-13T15:01:15;14.57;;;9.68;;
23101;SDS011;11720;51.214;22.574;2023-07-13T15:03:43;13.93;;;9.48;;
23101;SDS011;11720;51.214;22.574;2023-07-13T15:06:11;15.30;;;9.63;;
23101;SDS011;11720;51.214;22.574;2023-07-13T15:08:37;19.20;;;11.77;;
23101;SDS011;11720;51.214;22.574;2023-07-13T15:11:03;16.73;;;10.88;;
23101;SDS011;11720;51.214;22.574;2023-07-13T15:13:30;13.82;;;10.63;;
23101;SDS011;11720;51.214;22.574;2023-07-13T15:15:55;16.15;;;11.32;;
23101;SDS011;11720;51.214;22.574;2023-07-13T15:18:22;16.60;;;11.23;;
23101;SDS011;11720;51.214;22.574;2023-07-13T15:20:50;16.58;;;11.70;;
23101;SDS011;11720;51.214;22.574;2023-07-13T15:23:20;15.48;;;8.55;;
23101;SDS011;11720;51.214;22.574;2023-07-13T15:25:47;13.45;;;6.47;;
23101;SDS011;11720;51.214;22.574;2023-07-13T15:28:15;5.32;;;4.55;;
23101;SDS011;11720;51.214;22.574;2023-07-13T15:30:42;4.95;;;3.20;;
23101;SDS011;11720;51.214;22.574;2023-07-13T15:33:17;6.00;;;3.85;;
23101;SDS011;11720;51.214;22.574;2023-07-13T15:35:53;5.30;;;2.97;;
23101;SDS011;11720;51.214;22.574;2023-07-13T15:38:21;4.18;;;3.25;;
23101;SDS011;11720;51.214;22.574;2023-07-13T15:40:49;3.70;;;2.55;;
23101;SDS011;11720;51.214;22.574;2023-07-13T15:43:16;3.38;;;2.85;;
23101;SDS011;11720;51.214;22.574;2023-07-13T15:45:43;5.93;;;2.83;;